<?xml version="1.0" encoding="UTF-8" standalone="no" ?>
<gpx xmlns="http://www.topografix.com/GPX/1/1" xmlns:xsi="http://www.w3.org/2001/XMLSchema-instance" xsi:schemaLocation="http://www.topografix.com/GPX/1/1 http://www.topografix.com/GPX/1/1/gpx.xsd" version="1.1" creator="VisuGPX - https://www.visugpx.com">
  <metadata>
    <name>Gouarec_LesForgesLandesLiscuit_20.4km</name>
    <desc><![CDATA[gnerando idor:8140832]]></desc>
  </metadata>
  <trk>
    <name><![CDATA[LesForges_LandesLiscuit_20.4km-8140832]]></name>
    <extensions>
      <line xmlns="http://www.topografix.com/GPX/gpx_style/0/2">
        <color>0000FF</color>
        <width>4</width>
      </line>
    </extensions>
    <trkseg>
      <trkpt lat="48.19911" lon="-3.12549">
        <ele>179</ele>
        <time>2023-11-09T17:47:23Z</time>
      </trkpt>
      <trkpt lat="48.1997" lon="-3.12295">
        <ele>174</ele>
        <time>2023-11-09T17:51:22Z</time>
      </trkpt>
      <trkpt lat="48.19933" lon="-3.11896">
        <ele>160</ele>
        <time>2023-11-09T17:57:21Z</time>
      </trkpt>
      <trkpt lat="48.20025" lon="-3.11861">
        <ele>163</ele>
        <time>2023-11-09T17:59:27Z</time>
      </trkpt>
      <trkpt lat="48.20085" lon="-3.11522">
        <ele>188</ele>
        <time>2023-11-09T18:04:39Z</time>
      </trkpt>
      <trkpt lat="48.20385" lon="-3.11389">
        <ele>176</ele>
        <time>2023-11-09T18:11:37Z</time>
      </trkpt>
      <trkpt lat="48.20408" lon="-3.11248">
        <ele>166</ele>
        <time>2023-11-09T18:13:46Z</time>
      </trkpt>
      <trkpt lat="48.20462" lon="-3.11213">
        <ele>154</ele>
        <time>2023-11-09T18:15:04Z</time>
      </trkpt>
      <trkpt lat="48.20508" lon="-3.11235">
        <ele>144</ele>
        <time>2023-11-09T18:16:09Z</time>
      </trkpt>
      <trkpt lat="48.2052" lon="-3.11063">
        <ele>144</ele>
        <time>2023-11-09T18:18:42Z</time>
      </trkpt>
      <trkpt lat="48.20674" lon="-3.10921">
        <ele>136</ele>
        <time>2023-11-09T18:22:44Z</time>
      </trkpt>
      <trkpt lat="48.20697" lon="-3.11033">
        <ele>133</ele>
        <time>2023-11-09T18:24:28Z</time>
      </trkpt>
      <trkpt lat="48.20571" lon="-3.11093">
        <ele>135</ele>
        <time>2023-11-09T18:27:24Z</time>
      </trkpt>
      <trkpt lat="48.2058" lon="-3.1126">
        <ele>134</ele>
        <time>2023-11-09T18:29:53Z</time>
      </trkpt>
      <trkpt lat="48.20674" lon="-3.11445">
        <ele>137</ele>
        <time>2023-11-09T18:33:20Z</time>
      </trkpt>
      <trkpt lat="48.208" lon="-3.11582">
        <ele>136</ele>
        <time>2023-11-09T18:36:48Z</time>
      </trkpt>
      <trkpt lat="48.20886" lon="-3.11604">
        <ele>137</ele>
        <time>2023-11-09T18:38:44Z</time>
      </trkpt>
      <trkpt lat="48.2098" lon="-3.11535">
        <ele>151</ele>
        <time>2023-11-09T18:41:04Z</time>
      </trkpt>
      <trkpt lat="48.21092" lon="-3.11865">
        <ele>141</ele>
        <time>2023-11-09T18:46:33Z</time>
      </trkpt>
      <trkpt lat="48.21072" lon="-3.12338">
        <ele>134</ele>
        <time>2023-11-09T18:53:35Z</time>
      </trkpt>
      <trkpt lat="48.21063" lon="-3.12728">
        <ele>133</ele>
        <time>2023-11-09T18:59:22Z</time>
      </trkpt>
      <trkpt lat="48.21229" lon="-3.12947">
        <ele>126</ele>
        <time>2023-11-09T19:04:17Z</time>
      </trkpt>
      <trkpt lat="48.21372" lon="-3.12818">
        <ele>129</ele>
        <time>2023-11-09T19:07:59Z</time>
      </trkpt>
      <trkpt lat="48.21489" lon="-3.12767">
        <ele>131</ele>
        <time>2023-11-09T19:10:42Z</time>
      </trkpt>
      <trkpt lat="48.21606" lon="-3.12805">
        <ele>141</ele>
        <time>2023-11-09T19:13:22Z</time>
      </trkpt>
      <trkpt lat="48.21629" lon="-3.12853">
        <ele>147</ele>
        <time>2023-11-09T19:14:14Z</time>
      </trkpt>
      <trkpt lat="48.21824" lon="-3.12389">
        <ele>152</ele>
        <time>2023-11-09T19:22:22Z</time>
      </trkpt>
      <trkpt lat="48.21872" lon="-3.12458">
        <ele>171</ele>
        <time>2023-11-09T19:23:51Z</time>
      </trkpt>
      <trkpt lat="48.21998" lon="-3.12466">
        <ele>188</ele>
        <time>2023-11-09T19:26:39Z</time>
      </trkpt>
      <trkpt lat="48.22115" lon="-3.12342">
        <ele>174</ele>
        <time>2023-11-09T19:29:50Z</time>
      </trkpt>
      <trkpt lat="48.22281" lon="-3.12071">
        <ele>172</ele>
        <time>2023-11-09T19:35:17Z</time>
      </trkpt>
      <trkpt lat="48.22253" lon="-3.11964">
        <ele>166</ele>
        <time>2023-11-09T19:37:00Z</time>
      </trkpt>
      <trkpt lat="48.22173" lon="-3.11767">
        <ele>165</ele>
        <time>2023-11-09T19:40:25Z</time>
      </trkpt>
      <trkpt lat="48.22167" lon="-3.11574">
        <ele>165</ele>
        <time>2023-11-09T19:43:17Z</time>
      </trkpt>
      <trkpt lat="48.22261" lon="-3.11492">
        <ele>186</ele>
        <time>2023-11-09T19:45:42Z</time>
      </trkpt>
      <trkpt lat="48.22253" lon="-3.11574">
        <ele>194</ele>
        <time>2023-11-09T19:46:55Z</time>
      </trkpt>
      <trkpt lat="48.2229" lon="-3.11634">
        <ele>205</ele>
        <time>2023-11-09T19:48:08Z</time>
      </trkpt>
      <trkpt lat="48.22255" lon="-3.11685">
        <ele>201</ele>
        <time>2023-11-09T19:49:13Z</time>
      </trkpt>
      <trkpt lat="48.22318" lon="-3.11771">
        <ele>213</ele>
        <time>2023-11-09T19:51:07Z</time>
      </trkpt>
      <trkpt lat="48.22378" lon="-3.11861">
        <ele>213</ele>
        <time>2023-11-09T19:53:00Z</time>
      </trkpt>
      <trkpt lat="48.2241" lon="-3.11981">
        <ele>219</ele>
        <time>2023-11-09T19:54:55Z</time>
      </trkpt>
      <trkpt lat="48.22427" lon="-3.12136">
        <ele>224</ele>
        <time>2023-11-09T19:57:15Z</time>
      </trkpt>
      <trkpt lat="48.22401" lon="-3.12295">
        <ele>235</ele>
        <time>2023-11-09T19:59:40Z</time>
      </trkpt>
      <trkpt lat="48.22341" lon="-3.12453">
        <ele>243</ele>
        <time>2023-11-09T20:02:22Z</time>
      </trkpt>
      <trkpt lat="48.22358" lon="-3.12535">
        <ele>246</ele>
        <time>2023-11-09T20:03:38Z</time>
      </trkpt>
      <trkpt lat="48.2219" lon="-3.12677">
        <ele>236</ele>
        <time>2023-11-09T20:07:55Z</time>
      </trkpt>
      <trkpt lat="48.2207" lon="-3.12754">
        <ele>234</ele>
        <time>2023-11-09T20:10:50Z</time>
      </trkpt>
      <trkpt lat="48.22058" lon="-3.12934">
        <ele>243</ele>
        <time>2023-11-09T20:13:30Z</time>
      </trkpt>
      <trkpt lat="48.21927" lon="-3.13119">
        <ele>233</ele>
        <time>2023-11-09T20:17:30Z</time>
      </trkpt>
      <trkpt lat="48.21901" lon="-3.13428">
        <ele>231</ele>
        <time>2023-11-09T20:22:07Z</time>
      </trkpt>
      <trkpt lat="48.21964" lon="-3.13732">
        <ele>236</ele>
        <time>2023-11-09T20:26:50Z</time>
      </trkpt>
      <trkpt lat="48.21807" lon="-3.1396">
        <ele>207</ele>
        <time>2023-11-09T20:31:42Z</time>
      </trkpt>
      <trkpt lat="48.21801" lon="-3.1432">
        <ele>218</ele>
        <time>2023-11-09T20:37:02Z</time>
      </trkpt>
      <trkpt lat="48.21798" lon="-3.14612">
        <ele>229</ele>
        <time>2023-11-09T20:41:22Z</time>
      </trkpt>
      <trkpt lat="48.21747" lon="-3.14925">
        <ele>208</ele>
        <time>2023-11-09T20:46:08Z</time>
      </trkpt>
      <trkpt lat="48.21724" lon="-3.15303">
        <ele>216</ele>
        <time>2023-11-09T20:51:46Z</time>
      </trkpt>
      <trkpt lat="48.21644" lon="-3.15676">
        <ele>197</ele>
        <time>2023-11-09T20:57:34Z</time>
      </trkpt>
      <trkpt lat="48.21692" lon="-3.15779">
        <ele>196</ele>
        <time>2023-11-09T20:59:26Z</time>
      </trkpt>
      <trkpt lat="48.21821" lon="-3.15732">
        <ele>188</ele>
        <time>2023-11-09T21:02:23Z</time>
      </trkpt>
      <trkpt lat="48.21944" lon="-3.15814">
        <ele>159</ele>
        <time>2023-11-09T21:05:23Z</time>
      </trkpt>
      <trkpt lat="48.2197" lon="-3.15934">
        <ele>144</ele>
        <time>2023-11-09T21:07:15Z</time>
      </trkpt>
      <trkpt lat="48.22101" lon="-3.15548">
        <ele>169</ele>
        <time>2023-11-09T21:13:40Z</time>
      </trkpt>
      <trkpt lat="48.22127" lon="-3.15732">
        <ele>167</ele>
        <time>2023-11-09T21:16:27Z</time>
      </trkpt>
      <trkpt lat="48.2227" lon="-3.159">
        <ele>193</ele>
        <time>2023-11-09T21:20:30Z</time>
      </trkpt>
      <trkpt lat="48.22376" lon="-3.16033">
        <ele>205</ele>
        <time>2023-11-09T21:23:34Z</time>
      </trkpt>
      <trkpt lat="48.22453" lon="-3.16354">
        <ele>206</ele>
        <time>2023-11-09T21:28:37Z</time>
      </trkpt>
      <trkpt lat="48.22387" lon="-3.16376">
        <ele>207</ele>
        <time>2023-11-09T21:30:08Z</time>
      </trkpt>
      <trkpt lat="48.22353" lon="-3.16475">
        <ele>207</ele>
        <time>2023-11-09T21:31:47Z</time>
      </trkpt>
      <trkpt lat="48.22255" lon="-3.16612">
        <ele>201</ele>
        <time>2023-11-09T21:34:45Z</time>
      </trkpt>
      <trkpt lat="48.22253" lon="-3.16895">
        <ele>187</ele>
        <time>2023-11-09T21:38:57Z</time>
      </trkpt>
      <trkpt lat="48.22318" lon="-3.17058">
        <ele>160</ele>
        <time>2023-11-09T21:41:46Z</time>
      </trkpt>
      <trkpt lat="48.22507" lon="-3.17148">
        <ele>144</ele>
        <time>2023-11-09T21:46:10Z</time>
      </trkpt>
      <trkpt lat="48.22544" lon="-3.17002">
        <ele>162</ele>
        <time>2023-11-09T21:48:29Z</time>
      </trkpt>
      <trkpt lat="48.22601" lon="-3.17153">
        <ele>147</ele>
        <time>2023-11-09T21:51:04Z</time>
      </trkpt>
      <trkpt lat="48.22619" lon="-3.17492">
        <ele>135</ele>
        <time>2023-11-09T21:56:06Z</time>
      </trkpt>
      <trkpt lat="48.22704" lon="-3.17642">
        <ele>133</ele>
        <time>2023-11-09T21:59:01Z</time>
      </trkpt>
      <trkpt lat="48.22624" lon="-3.17676">
        <ele>132</ele>
        <time>2023-11-09T22:00:52Z</time>
      </trkpt>
      <trkpt lat="48.22559" lon="-3.17878">
        <ele>132</ele>
        <time>2023-11-09T22:04:11Z</time>
      </trkpt>
      <trkpt lat="48.22424" lon="-3.17831">
        <ele>134</ele>
        <time>2023-11-09T22:07:16Z</time>
      </trkpt>
      <trkpt lat="48.22464" lon="-3.17612">
        <ele>134</ele>
        <time>2023-11-09T22:10:38Z</time>
      </trkpt>
      <trkpt lat="48.22496" lon="-3.17363">
        <ele>132</ele>
        <time>2023-11-09T22:14:24Z</time>
      </trkpt>
      <trkpt lat="48.22393" lon="-3.17217">
        <ele>135</ele>
        <time>2023-11-09T22:17:33Z</time>
      </trkpt>
      <trkpt lat="48.22167" lon="-3.17148">
        <ele>139</ele>
        <time>2023-11-09T22:22:40Z</time>
      </trkpt>
      <trkpt lat="48.22075" lon="-3.17166">
        <ele>141</ele>
        <time>2023-11-09T22:24:44Z</time>
      </trkpt>
      <trkpt lat="48.21927" lon="-3.1705">
        <ele>148</ele>
        <time>2023-11-09T22:28:27Z</time>
      </trkpt>
      <trkpt lat="48.21872" lon="-3.16899">
        <ele>151</ele>
        <time>2023-11-09T22:31:00Z</time>
      </trkpt>
      <trkpt lat="48.21867" lon="-3.16706">
        <ele>153</ele>
        <time>2023-11-09T22:33:52Z</time>
      </trkpt>
      <trkpt lat="48.21915" lon="-3.16492">
        <ele>144</ele>
        <time>2023-11-09T22:37:13Z</time>
      </trkpt>
      <trkpt lat="48.21992" lon="-3.16294">
        <ele>142</ele>
        <time>2023-11-09T22:40:36Z</time>
      </trkpt>
      <trkpt lat="48.21981" lon="-3.1614">
        <ele>141</ele>
        <time>2023-11-09T22:42:54Z</time>
      </trkpt>
      <trkpt lat="48.21858" lon="-3.16028">
        <ele>140</ele>
        <time>2023-11-09T22:46:06Z</time>
      </trkpt>
      <trkpt lat="48.21641" lon="-3.16101">
        <ele>145</ele>
        <time>2023-11-09T22:51:03Z</time>
      </trkpt>
      <trkpt lat="48.21461" lon="-3.16015">
        <ele>148</ele>
        <time>2023-11-09T22:55:15Z</time>
      </trkpt>
      <trkpt lat="48.21238" lon="-3.15784">
        <ele>135</ele>
        <time>2023-11-09T23:01:17Z</time>
      </trkpt>
      <trkpt lat="48.21186" lon="-3.15329">
        <ele>140</ele>
        <time>2023-11-09T23:08:07Z</time>
      </trkpt>
      <trkpt lat="48.21306" lon="-3.15084">
        <ele>131</ele>
        <time>2023-11-09T23:12:38Z</time>
      </trkpt>
      <trkpt lat="48.21378" lon="-3.14779">
        <ele>134</ele>
        <time>2023-11-09T23:17:25Z</time>
      </trkpt>
      <trkpt lat="48.21443" lon="-3.14359">
        <ele>134</ele>
        <time>2023-11-09T23:23:49Z</time>
      </trkpt>
      <trkpt lat="48.21429" lon="-3.13827">
        <ele>132</ele>
        <time>2023-11-09T23:31:42Z</time>
      </trkpt>
      <trkpt lat="48.21369" lon="-3.13445">
        <ele>140</ele>
        <time>2023-11-09T23:37:31Z</time>
      </trkpt>
      <trkpt lat="48.21366" lon="-3.13213">
        <ele>137</ele>
        <time>2023-11-09T23:40:57Z</time>
      </trkpt>
      <trkpt lat="48.21226" lon="-3.13024">
        <ele>130</ele>
        <time>2023-11-09T23:45:09Z</time>
      </trkpt>
      <trkpt lat="48.21118" lon="-3.12971">
        <ele>141</ele>
        <time>2023-11-09T23:47:40Z</time>
      </trkpt>
      <trkpt lat="48.20979" lon="-3.12869">
        <ele>171</ele>
        <time>2023-11-09T23:51:07Z</time>
      </trkpt>
      <trkpt lat="48.20866" lon="-3.1243">
        <ele>192</ele>
        <time>2023-11-09T23:58:05Z</time>
      </trkpt>
      <trkpt lat="48.20781" lon="-3.12139">
        <ele>205</ele>
        <time>2023-11-10T00:02:48Z</time>
      </trkpt>
      <trkpt lat="48.20747" lon="-3.12155">
        <ele>218</ele>
        <time>2023-11-10T00:03:35Z</time>
      </trkpt>
      <trkpt lat="48.20724" lon="-3.12486">
        <ele>242</ele>
        <time>2023-11-10T00:08:31Z</time>
      </trkpt>
      <trkpt lat="48.20661" lon="-3.12569">
        <ele>248</ele>
        <time>2023-11-10T00:10:23Z</time>
      </trkpt>
      <trkpt lat="48.20664" lon="-3.12666">
        <ele>252</ele>
        <time>2023-11-10T00:11:50Z</time>
      </trkpt>
      <trkpt lat="48.20518" lon="-3.12632">
        <ele>244</ele>
        <time>2023-11-10T00:15:07Z</time>
      </trkpt>
      <trkpt lat="48.2039" lon="-3.12677">
        <ele>232</ele>
        <time>2023-11-10T00:18:02Z</time>
      </trkpt>
      <trkpt lat="48.2037" lon="-3.12719">
        <ele>229</ele>
        <time>2023-11-10T00:18:48Z</time>
      </trkpt>
      <trkpt lat="48.20292" lon="-3.12701">
        <ele>218</ele>
        <time>2023-11-10T00:20:33Z</time>
      </trkpt>
      <trkpt lat="48.2028" lon="-3.12818">
        <ele>214</ele>
        <time>2023-11-10T00:22:19Z</time>
      </trkpt>
      <trkpt lat="48.20218" lon="-3.128">
        <ele>205</ele>
        <time>2023-11-10T00:23:43Z</time>
      </trkpt>
      <trkpt lat="48.20174" lon="-3.12868">
        <ele>193</ele>
        <time>2023-11-10T00:25:07Z</time>
      </trkpt>
      <trkpt lat="48.20109" lon="-3.12807">
        <ele>183</ele>
        <time>2023-11-10T00:26:50Z</time>
      </trkpt>
      <trkpt lat="48.20061" lon="-3.12634">
        <ele>171</ele>
        <time>2023-11-10T00:29:36Z</time>
      </trkpt>
      <trkpt lat="48.20035" lon="-3.12684">
        <ele>169</ele>
        <time>2023-11-10T00:30:33Z</time>
      </trkpt>
      <trkpt lat="48.19951" lon="-3.1267">
        <ele>172</ele>
        <time>2023-11-10T00:32:26Z</time>
      </trkpt>
      <trkpt lat="48.19901" lon="-3.12534">
        <ele>181</ele>
        <time>2023-11-10T00:34:44Z</time>
      </trkpt>
    </trkseg>
  </trk>
</gpx>